sensor_id;sensor_type;location;lat;lon;timestamp;P1;durP1;ratioP1;P2;durP2;ratioP2
21128;SDS011;10722;51.910;8.352;2024-03-07T00:01:17;46.17;;;27.80;;
21128;SDS011;10722;51.910;8.352;2024-03-07T00:04:02;46.97;;;28.90;;
21128;SDS011;10722;51.910;8.352;2024-03-07T00:06:47;44.70;;;28.23;;
21128;SDS011;10722;51.910;8.352;2024-03-07T00:09:33;46.30;;;27.43;;
21128;SDS011;10722;51.910;8.352;2024-03-07T00:12:18;48.00;;;28.33;;
21128;SDS011;10722;51.910;8.352;2024-03-07T00:15:04;46.23;;;27.90;;
21128;SDS011;10722;51.910;8.352;2024-03-07T00:17:51;46.03;;;28.80;;
21128;SDS011;10722;51.910;8.352;2024-03-07T00:20:36;48.07;;;28.73;;
21128;SDS011;10722;51.910;8.352;2024-03-07T00:23:21;47.50;;;29.37;;
21128;SDS011;10722;51.910;8.352;2024-03-07T00:26:06;49.50;;;28.77;;
21128;SDS011;10722;51.910;8.352;2024-03-07T00:28:51;44.33;;;26.87;;
21128;SDS011;10722;51.910;8.352;2024-03-07T00:31:36;45.93;;;27.67;;
21128;SDS011;10722;51.910;8.352;2024-03-07T00:34:21;47.17;;;27.07;;
21128;SDS011;10722;51.910;8.352;2024-03-07T00:37:10;44.63;;;27.20;;
21128;SDS011;10722;51.910;8.352;2024-03-07T00:39:56;44.67;;;27.27;;
21128;SDS011;10722;51.910;8.352;2024-03-07T00:42:41;45.83;;;27.37;;
21128;SDS011;10722;51.910;8.352;2024-03-07T00:45:26;47.40;;;27.80;;
21128;SDS011;10722;51.910;8.352;2024-03-07T00:48:11;48.27;;;28.07;;
21128;SDS011;10722;51.910;8.352;2024-03-07T00:50:57;46.17;;;27.60;;
21128;SDS011;10722;51.910;8.352;2024-03-07T00:53:42;44.63;;;27.40;;
21128;SDS011;10722;51.910;8.352;2024-03-07T00:56:27;45.30;;;28.20;;
21128;SDS011;10722;51.910;8.352;2024-03-07T00:59:12;46.33;;;28.07;;
21128;SDS011;10722;51.910;8.352;2024-03-07T01:01:57;46.90;;;28.33;;
21128;SDS011;10722;51.910;8.352;2024-03-07T01:04:43;47.27;;;27.97;;
21128;SDS011;10722;51.910;8.352;2024-03-07T01:07:28;46.37;;;27.93;;
21128;SDS011;10722;51.910;8.352;2024-03-07T01:10:14;46.83;;;28.77;;
21128;SDS011;10722;51.910;8.352;2024-03-07T01:13:00;47.07;;;28.30;;
21128;SDS011;10722;51.910;8.352;2024-03-07T01:15:45;47.23;;;27.30;;
21128;SDS011;10722;51.910;8.352;2024-03-07T01:18:30;46.53;;;27.80;;
21128;SDS011;10722;51.910;8.352;2024-03-07T01:21:15;49.97;;;29.17;;
21128;SDS011;10722;51.910;8.352;2024-03-07T01:24:00;46.53;;;27.70;;
21128;SDS011;10722;51.910;8.352;2024-03-07T01:26:46;50.83;;;28.27;;
21128;SDS011;10722;51.910;8.352;2024-03-07T01:29:32;46.30;;;27.53;;
21128;SDS011;10722;51.910;8.352;2024-03-07T01:32:17;45.83;;;26.90;;
21128;SDS011;10722;51.910;8.352;2024-03-07T01:35:02;47.43;;;27.70;;
21128;SDS011;10722;51.910;8.352;2024-03-07T01:37:47;45.37;;;27.67;;
21128;SDS011;10722;51.910;8.352;2024-03-07T01:40:32;45.07;;;27.43;;
21128;SDS011;10722;51.910;8.352;2024-03-07T01:43:17;45.43;;;26.97;;
21128;SDS011;10722;51.910;8.352;2024-03-07T01:46:02;47.33;;;27.33;;
21128;SDS011;10722;51.910;8.352;2024-03-07T01:48:48;44.47;;;26.63;;
21128;SDS011;10722;51.910;8.352;2024-03-07T01:51:33;45.87;;;27.37;;
21128;SDS011;10722;51.910;8.352;2024-03-07T01:54:21;45.33;;;27.73;;
21128;SDS011;10722;51.910;8.352;2024-03-07T01:57:06;43.97;;;27.57;;
21128;SDS011;10722;51.910;8.352;2024-03-07T01:59:52;45.40;;;27.47;;
21128;SDS011;10722;51.910;8.352;2024-03-07T02:02:37;46.13;;;28.30;;
21128;SDS011;10722;51.910;8.352;2024-03-07T02:05:23;47.70;;;28.83;;
21128;SDS011;10722;51.910;8.352;2024-03-07T02:08:08;46.60;;;28.17;;
21128;SDS011;10722;51.910;8.352;2024-03-07T02:10:53;48.37;;;27.93;;
21128;SDS011;10722;51.910;8.352;2024-03-07T02:13:39;47.33;;;28.17;;
21128;SDS011;10722;51.910;8.352;2024-03-07T02:16:24;45.73;;;28.30;;
21128;SDS011;10722;51.910;8.352;2024-03-07T02:19:11;48.63;;;28.57;;
21128;SDS011;10722;51.910;8.352;2024-03-07T02:21:59;46.30;;;27.67;;
21128;SDS011;10722;51.910;8.352;2024-03-07T02:24:44;49.87;;;29.27;;
21128;SDS011;10722;51.910;8.352;2024-03-07T02:27:30;46.07;;;28.07;;
21128;SDS011;10722;51.910;8.352;2024-03-07T02:30:15;45.40;;;27.87;;
21128;SDS011;10722;51.910;8.352;2024-03-07T02:33:00;46.00;;;27.97;;
21128;SDS011;10722;51.910;8.352;2024-03-07T02:35:45;45.47;;;28.03;;
21128;SDS011;10722;51.910;8.352;2024-03-07T02:38:30;43.60;;;26.57;;
21128;SDS011;10722;51.910;8.352;2024-03-07T02:41:15;47.80;;;27.33;;
21128;SDS011;10722;51.910;8.352;2024-03-07T02:44:00;46.73;;;27.13;;
21128;SDS011;10722;51.910;8.352;2024-03-07T02:46:45;45.60;;;27.17;;
21128;SDS011;10722;51.910;8.352;2024-03-07T02:49:30;44.53;;;27.67;;
21128;SDS011;10722;51.910;8.352;2024-03-07T02:52:15;46.80;;;28.23;;
21128;SDS011;10722;51.910;8.352;2024-03-07T02:55:00;47.83;;;28.10;;
21128;SDS011;10722;51.910;8.352;2024-03-07T02:57:45;46.77;;;27.53;;
21128;SDS011;10722;51.910;8.352;2024-03-07T03:00:31;50.57;;;28.80;;
21128;SDS011;10722;51.910;8.352;2024-03-07T03:03:16;46.70;;;28.50;;
21128;SDS011;10722;51.910;8.352;2024-03-07T03:06:01;49.23;;;29.83;;
21128;SDS011;10722;51.910;8.352;2024-03-07T03:08:46;46.67;;;28.90;;
21128;SDS011;10722;51.910;8.352;2024-03-07T03:11:32;47.50;;;28.37;;
21128;SDS011;10722;51.910;8.352;2024-03-07T03:14:17;45.27;;;27.90;;
21128;SDS011;10722;51.910;8.352;2024-03-07T03:17:02;44.63;;;27.83;;
21128;SDS011;10722;51.910;8.352;2024-03-07T03:19:48;47.43;;;28.13;;
21128;SDS011;10722;51.910;8.352;2024-03-07T03:22:33;48.90;;;28.80;;
21128;SDS011;10722;51.910;8.352;2024-03-07T03:25:18;48.37;;;27.87;;
21128;SDS011;10722;51.910;8.352;2024-03-07T03:28:04;47.83;;;29.33;;
21128;SDS011;10722;51.910;8.352;2024-03-07T03:30:50;48.03;;;28.27;;
21128;SDS011;10722;51.910;8.352;2024-03-07T03:33:35;50.10;;;29.47;;
21128;SDS011;10722;51.910;8.352;2024-03-07T03:36:20;45.13;;;27.63;;
21128;SDS011;10722;51.910;8.352;2024-03-07T03:39:05;49.50;;;28.37;;
21128;SDS011;10722;51.910;8.352;2024-03-07T03:41:50;49.07;;;28.87;;
21128;SDS011;10722;51.910;8.352;2024-03-07T03:44:35;47.07;;;29.60;;
21128;SDS011;10722;51.910;8.352;2024-03-07T03:47:20;53.03;;;30.20;;
21128;SDS011;10722;51.910;8.352;2024-03-07T03:50:06;53.87;;;29.87;;
21128;SDS011;10722;51.910;8.352;2024-03-07T03:52:52;54.03;;;31.37;;
21128;SDS011;10722;51.910;8.352;2024-03-07T03:55:37;50.50;;;30.03;;
21128;SDS011;10722;51.910;8.352;2024-03-07T03:58:22;52.37;;;30.53;;
21128;SDS011;10722;51.910;8.352;2024-03-07T04:01:06;50.73;;;29.70;;
21128;SDS011;10722;51.910;8.352;2024-03-07T04:03:51;51.00;;;29.87;;
21128;SDS011;10722;51.910;8.352;2024-03-07T04:06:36;51.07;;;30.53;;
21128;SDS011;10722;51.910;8.352;2024-03-07T04:09:22;54.23;;;31.37;;
21128;SDS011;10722;51.910;8.352;2024-03-07T04:12:07;50.17;;;30.47;;
21128;SDS011;10722;51.910;8.352;2024-03-07T04:14:53;49.50;;;30.70;;
21128;SDS011;10722;51.910;8.352;2024-03-07T04:17:38;54.27;;;31.67;;
21128;SDS011;10722;51.910;8.352;2024-03-07T04:20:24;53.77;;;32.87;;
21128;SDS011;10722;51.910;8.352;2024-03-07T04:23:09;57.33;;;32.27;;
21128;SDS011;10722;51.910;8.352;2024-03-07T04:25:56;57.70;;;33.57;;
21128;SDS011;10722;51.910;8.352;2024-03-07T04:28:41;56.73;;;33.77;;
21128;SDS011;10722;51.910;8.352;2024-03-07T04:31:26;56.77;;;33.47;;
21128;SDS011;10722;51.910;8.352;2024-03-07T04:34:11;57.23;;;33.87;;
21128;SDS011;10722;51.910;8.352;2024-03-07T04:36:57;60.60;;;34.23;;
21128;SDS011;10722;51.910;8.352;2024-03-07T04:39:42;56.17;;;33.87;;
21128;SDS011;10722;51.910;8.352;2024-03-07T04:42:27;57.00;;;34.03;;
21128;SDS011;10722;51.910;8.352;2024-03-07T04:45:13;59.00;;;33.97;;
21128;SDS011;10722;51.910;8.352;2024-03-07T04:47:58;60.00;;;34.73;;
21128;SDS011;10722;51.910;8.352;2024-03-07T04:50:43;60.73;;;36.30;;
21128;SDS011;10722;51.910;8.352;2024-03-07T04:53:28;65.63;;;39.83;;
21128;SDS011;10722;51.910;8.352;2024-03-07T04:56:14;57.03;;;35.70;;
21128;SDS011;10722;51.910;8.352;2024-03-07T04:58:59;61.53;;;35.90;;
21128;SDS011;10722;51.910;8.352;2024-03-07T05:01:44;59.50;;;36.00;;
21128;SDS011;10722;51.910;8.352;2024-03-07T05:04:30;73.50;;;41.10;;
21128;SDS011;10722;51.910;8.352;2024-03-07T05:07:15;115.80;;;62.97;;
21128;SDS011;10722;51.910;8.352;2024-03-07T05:10:00;92.03;;;52.83;;
21128;SDS011;10722;51.910;8.352;2024-03-07T05:12:46;77.53;;;43.93;;
21128;SDS011;10722;51.910;8.352;2024-03-07T05:15:31;77.30;;;47.30;;
21128;SDS011;10722;51.910;8.352;2024-03-07T05:18:16;63.73;;;35.93;;
21128;SDS011;10722;51.910;8.352;2024-03-07T05:21:01;64.30;;;37.27;;
21128;SDS011;10722;51.910;8.352;2024-03-07T05:23:46;61.87;;;36.13;;
21128;SDS011;10722;51.910;8.352;2024-03-07T05:26:31;61.20;;;35.17;;
21128;SDS011;10722;51.910;8.352;2024-03-07T05:29:16;56.37;;;34.63;;
21128;SDS011;10722;51.910;8.352;2024-03-07T05:32:19;59.17;;;33.77;;
21128;SDS011;10722;51.910;8.352;2024-03-07T05:35:08;56.97;;;33.33;;
21128;SDS011;10722;51.910;8.352;2024-03-07T05:37:53;58.57;;;34.23;;
21128;SDS011;10722;51.910;8.352;2024-03-07T05:40:38;55.70;;;32.40;;
21128;SDS011;10722;51.910;8.352;2024-03-07T05:43:23;54.90;;;32.07;;
21128;SDS011;10722;51.910;8.352;2024-03-07T05:46:09;55.80;;;32.23;;
21128;SDS011;10722;51.910;8.352;2024-03-07T05:48:53;53.87;;;31.23;;
21128;SDS011;10722;51.910;8.352;2024-03-07T05:51:38;62.10;;;34.00;;
21128;SDS011;10722;51.910;8.352;2024-03-07T05:54:23;53.17;;;32.93;;
21128;SDS011;10722;51.910;8.352;2024-03-07T05:57:08;54.80;;;31.97;;
21128;SDS011;10722;51.910;8.352;2024-03-07T05:59:53;56.63;;;33.60;;
21128;SDS011;10722;51.910;8.352;2024-03-07T06:02:39;55.03;;;33.57;;
21128;SDS011;10722;51.910;8.352;2024-03-07T06:05:24;57.47;;;33.63;;
21128;SDS011;10722;51.910;8.352;2024-03-07T06:08:09;59.10;;;34.23;;
21128;SDS011;10722;51.910;8.352;2024-03-07T06:10:54;55.70;;;34.20;;
21128;SDS011;10722;51.910;8.352;2024-03-07T06:13:39;58.53;;;34.77;;
21128;SDS011;10722;51.910;8.352;2024-03-07T06:16:24;54.40;;;32.83;;
21128;SDS011;10722;51.910;8.352;2024-03-07T06:19:09;57.27;;;32.20;;
21128;SDS011;10722;51.910;8.352;2024-03-07T06:21:56;54.63;;;31.53;;
21128;SDS011;10722;51.910;8.352;2024-03-07T06:24:41;53.87;;;32.80;;
21128;SDS011;10722;51.910;8.352;2024-03-07T06:27:26;55.50;;;32.57;;
21128;SDS011;10722;51.910;8.352;2024-03-07T06:30:11;52.50;;;31.77;;
21128;SDS011;10722;51.910;8.352;2024-03-07T06:32:57;51.57;;;31.23;;
21128;SDS011;10722;51.910;8.352;2024-03-07T06:35:42;52.27;;;31.37;;
21128;SDS011;10722;51.910;8.352;2024-03-07T06:38:28;52.50;;;31.70;;
21128;SDS011;10722;51.910;8.352;2024-03-07T06:41:13;50.63;;;30.53;;
21128;SDS011;10722;51.910;8.352;2024-03-07T06:43:58;54.57;;;33.50;;
21128;SDS011;10722;51.910;8.352;2024-03-07T06:46:43;53.27;;;31.17;;
21128;SDS011;10722;51.910;8.352;2024-03-07T06:49:28;54.70;;;31.40;;
21128;SDS011;10722;51.910;8.352;2024-03-07T06:52:14;50.47;;;30.80;;
21128;SDS011;10722;51.910;8.352;2024-03-07T06:54:58;58.47;;;30.70;;
21128;SDS011;10722;51.910;8.352;2024-03-07T06:57:44;58.63;;;33.03;;
21128;SDS011;10722;51.910;8.352;2024-03-07T07:00:29;51.03;;;30.80;;
21128;SDS011;10722;51.910;8.352;2024-03-07T07:03:14;52.97;;;30.93;;
21128;SDS011;10722;51.910;8.352;2024-03-07T07:05:59;54.30;;;31.67;;
21128;SDS011;10722;51.910;8.352;2024-03-07T07:08:45;53.37;;;32.27;;
21128;SDS011;10722;51.910;8.352;2024-03-07T07:11:30;51.70;;;31.13;;
21128;SDS011;10722;51.910;8.352;2024-03-07T07:14:19;52.57;;;30.10;;
21128;SDS011;10722;51.910;8.352;2024-03-07T07:17:04;52.90;;;31.57;;
21128;SDS011;10722;51.910;8.352;2024-03-07T07:19:52;52.53;;;30.60;;
21128;SDS011;10722;51.910;8.352;2024-03-07T07:22:37;48.70;;;29.27;;
21128;SDS011;10722;51.910;8.352;2024-03-07T07:25:22;48.40;;;29.40;;
21128;SDS011;10722;51.910;8.352;2024-03-07T07:28:07;49.30;;;30.03;;
21128;SDS011;10722;51.910;8.352;2024-03-07T07:30:52;48.27;;;29.07;;
21128;SDS011;10722;51.910;8.352;2024-03-07T07:33:37;51.23;;;30.70;;
21128;SDS011;10722;51.910;8.352;2024-03-07T07:36:22;50.33;;;29.93;;
21128;SDS011;10722;51.910;8.352;2024-03-07T07:39:07;47.33;;;28.90;;
21128;SDS011;10722;51.910;8.352;2024-03-07T07:41:52;49.60;;;28.97;;
21128;SDS011;10722;51.910;8.352;2024-03-07T07:44:37;45.10;;;28.27;;
21128;SDS011;10722;51.910;8.352;2024-03-07T07:47:22;52.07;;;29.67;;
21128;SDS011;10722;51.910;8.352;2024-03-07T07:50:11;49.03;;;29.40;;
21128;SDS011;10722;51.910;8.352;2024-03-07T07:52:57;53.83;;;29.93;;
21128;SDS011;10722;51.910;8.352;2024-03-07T07:55:43;47.73;;;30.27;;
21128;SDS011;10722;51.910;8.352;2024-03-07T07:58:28;49.97;;;30.77;;
21128;SDS011;10722;51.910;8.352;2024-03-07T08:01:13;51.13;;;30.70;;
21128;SDS011;10722;51.910;8.352;2024-03-07T08:03:58;49.03;;;30.30;;
21128;SDS011;10722;51.910;8.352;2024-03-07T08:06:43;49.33;;;28.93;;
21128;SDS011;10722;51.910;8.352;2024-03-07T08:09:28;49.90;;;30.30;;
21128;SDS011;10722;51.910;8.352;2024-03-07T08:12:13;46.50;;;28.53;;
21128;SDS011;10722;51.910;8.352;2024-03-07T08:14:58;49.17;;;28.87;;
21128;SDS011;10722;51.910;8.352;2024-03-07T08:17:43;51.73;;;30.50;;
21128;SDS011;10722;51.910;8.352;2024-03-07T08:20:29;48.20;;;28.47;;
21128;SDS011;10722;51.910;8.352;2024-03-07T08:23:14;51.47;;;29.83;;
21128;SDS011;10722;51.910;8.352;2024-03-07T08:26:00;47.17;;;27.40;;
21128;SDS011;10722;51.910;8.352;2024-03-07T08:28:44;46.23;;;27.53;;
21128;SDS011;10722;51.910;8.352;2024-03-07T08:31:29;50.47;;;28.30;;
21128;SDS011;10722;51.910;8.352;2024-03-07T08:34:14;47.67;;;29.13;;
21128;SDS011;10722;51.910;8.352;2024-03-07T08:36:59;46.60;;;28.17;;
21128;SDS011;10722;51.910;8.352;2024-03-07T08:39:44;46.40;;;28.37;;
21128;SDS011;10722;51.910;8.352;2024-03-07T08:42:30;49.27;;;29.03;;
21128;SDS011;10722;51.910;8.352;2024-03-07T08:45:15;50.00;;;29.90;;
21128;SDS011;10722;51.910;8.352;2024-03-07T08:48:00;47.73;;;29.57;;
21128;SDS011;10722;51.910;8.352;2024-03-07T08:50:46;48.93;;;29.83;;
21128;SDS011;10722;51.910;8.352;2024-03-07T08:53:31;46.80;;;29.27;;
21128;SDS011;10722;51.910;8.352;2024-03-07T08:56:16;45.57;;;28.80;;
21128;SDS011;10722;51.910;8.352;2024-03-07T08:59:01;50.70;;;30.40;;
21128;SDS011;10722;51.910;8.352;2024-03-07T09:01:47;47.63;;;28.00;;
21128;SDS011;10722;51.910;8.352;2024-03-07T09:04:32;49.03;;;29.37;;
21128;SDS011;10722;51.910;8.352;2024-03-07T09:07:17;46.63;;;28.43;;
21128;SDS011;10722;51.910;8.352;2024-03-07T09:10:02;45.73;;;27.77;;
21128;SDS011;10722;51.910;8.352;2024-03-07T09:12:50;47.67;;;27.97;;
21128;SDS011;10722;51.910;8.352;2024-03-07T09:15:35;48.10;;;29.33;;
21128;SDS011;10722;51.910;8.352;2024-03-07T09:18:20;45.20;;;29.20;;
21128;SDS011;10722;51.910;8.352;2024-03-07T09:21:06;49.53;;;28.60;;
21128;SDS011;10722;51.910;8.352;2024-03-07T09:23:51;47.90;;;27.93;;
21128;SDS011;10722;51.910;8.352;2024-03-07T09:26:37;43.93;;;27.50;;
21128;SDS011;10722;51.910;8.352;2024-03-07T09:29:22;45.60;;;27.30;;
21128;SDS011;10722;51.910;8.352;2024-03-07T09:32:08;44.40;;;26.77;;
21128;SDS011;10722;51.910;8.352;2024-03-07T09:34:53;45.10;;;27.20;;
21128;SDS011;10722;51.910;8.352;2024-03-07T09:37:38;48.00;;;28.53;;
21128;SDS011;10722;51.910;8.352;2024-03-07T09:40:27;44.60;;;26.63;;
21128;SDS011;10722;51.910;8.352;2024-03-07T09:43:12;42.67;;;25.83;;
21128;SDS011;10722;51.910;8.352;2024-03-07T09:45:57;42.37;;;25.77;;
21128;SDS011;10722;51.910;8.352;2024-03-07T09:48:43;42.27;;;25.07;;
21128;SDS011;10722;51.910;8.352;2024-03-07T09:51:28;44.93;;;24.63;;
21128;SDS011;10722;51.910;8.352;2024-03-07T09:54:14;40.87;;;25.70;;
21128;SDS011;10722;51.910;8.352;2024-03-07T09:56:59;38.03;;;21.60;;
21128;SDS011;10722;51.910;8.352;2024-03-07T09:59:44;36.73;;;20.80;;
21128;SDS011;10722;51.910;8.352;2024-03-07T10:02:31;43.97;;;27.10;;
21128;SDS011;10722;51.910;8.352;2024-03-07T10:05:21;38.57;;;22.80;;
21128;SDS011;10722;51.910;8.352;2024-03-07T10:08:07;45.97;;;26.97;;
21128;SDS011;10722;51.910;8.352;2024-03-07T10:10:54;40.90;;;24.57;;
21128;SDS011;10722;51.910;8.352;2024-03-07T10:13:40;38.90;;;23.13;;
21128;SDS011;10722;51.910;8.352;2024-03-07T10:16:25;41.10;;;23.43;;
21128;SDS011;10722;51.910;8.352;2024-03-07T10:19:10;47.43;;;26.03;;
21128;SDS011;10722;51.910;8.352;2024-03-07T10:21:55;41.83;;;24.23;;
21128;SDS011;10722;51.910;8.352;2024-03-07T10:24:40;36.00;;;20.97;;
21128;SDS011;10722;51.910;8.352;2024-03-07T10:27:35;45.60;;;25.73;;
21128;SDS011;10722;51.910;8.352;2024-03-07T10:30:21;55.53;;;30.80;;
21128;SDS011;10722;51.910;8.352;2024-03-07T10:33:07;42.50;;;24.70;;
21128;SDS011;10722;51.910;8.352;2024-03-07T10:35:52;45.07;;;25.00;;
21128;SDS011;10722;51.910;8.352;2024-03-07T10:38:38;43.17;;;24.20;;
21128;SDS011;10722;51.910;8.352;2024-03-07T10:41:23;47.87;;;26.90;;
21128;SDS011;10722;51.910;8.352;2024-03-07T10:47:05;42.20;;;23.63;;
21128;SDS011;10722;51.910;8.352;2024-03-07T10:52:58;43.43;;;23.30;;
21128;SDS011;10722;51.910;8.352;2024-03-07T11:05:26;46.00;;;24.63;;
21128;SDS011;10722;51.910;8.352;2024-03-07T11:08:11;46.47;;;25.37;;
21128;SDS011;10722;51.910;8.352;2024-03-07T11:10:58;44.93;;;24.03;;
21128;SDS011;10722;51.910;8.352;2024-03-07T11:13:43;45.70;;;24.53;;
21128;SDS011;10722;51.910;8.352;2024-03-07T11:16:31;48.13;;;25.37;;
21128;SDS011;10722;51.910;8.352;2024-03-07T11:22:06;51.53;;;26.20;;
21128;SDS011;10722;51.910;8.352;2024-03-07T11:25:02;46.73;;;25.83;;
21128;SDS011;10722;51.910;8.352;2024-03-07T11:27:59;50.43;;;27.10;;
21128;SDS011;10722;51.910;8.352;2024-03-07T11:30:44;49.13;;;26.63;;
21128;SDS011;10722;51.910;8.352;2024-03-07T11:33:29;49.53;;;26.40;;
21128;SDS011;10722;51.910;8.352;2024-03-07T11:36:15;51.47;;;26.40;;
21128;SDS011;10722;51.910;8.352;2024-03-07T11:39:45;53.07;;;28.10;;
21128;SDS011;10722;51.910;8.352;2024-03-07T11:42:33;52.17;;;27.10;;
21128;SDS011;10722;51.910;8.352;2024-03-07T11:45:19;49.73;;;25.77;;
21128;SDS011;10722;51.910;8.352;2024-03-07T11:48:05;43.93;;;22.90;;
21128;SDS011;10722;51.910;8.352;2024-03-07T11:50:51;44.00;;;22.93;;
21128;SDS011;10722;51.910;8.352;2024-03-07T11:53:39;52.67;;;28.00;;
21128;SDS011;10722;51.910;8.352;2024-03-07T11:56:25;42.00;;;22.23;;
21128;SDS011;10722;51.910;8.352;2024-03-07T11:59:09;44.53;;;23.27;;
21128;SDS011;10722;51.910;8.352;2024-03-07T12:01:56;39.53;;;21.20;;
21128;SDS011;10722;51.910;8.352;2024-03-07T12:04:41;40.13;;;21.00;;
21128;SDS011;10722;51.910;8.352;2024-03-07T12:07:27;47.60;;;25.50;;
21128;SDS011;10722;51.910;8.352;2024-03-07T12:10:12;49.83;;;28.57;;
21128;SDS011;10722;51.910;8.352;2024-03-07T12:12:57;39.60;;;20.97;;
21128;SDS011;10722;51.910;8.352;2024-03-07T12:15:42;41.07;;;22.10;;
21128;SDS011;10722;51.910;8.352;2024-03-07T12:18:28;42.93;;;23.37;;
21128;SDS011;10722;51.910;8.352;2024-03-07T12:21:14;42.13;;;22.67;;
21128;SDS011;10722;51.910;8.352;2024-03-07T12:23:59;37.93;;;20.60;;
21128;SDS011;10722;51.910;8.352;2024-03-07T12:27:11;37.47;;;20.67;;
21128;SDS011;10722;51.910;8.352;2024-03-07T12:29:57;37.43;;;18.90;;
21128;SDS011;10722;51.910;8.352;2024-03-07T12:32:47;36.33;;;19.80;;
21128;SDS011;10722;51.910;8.352;2024-03-07T12:35:33;39.70;;;20.10;;
21128;SDS011;10722;51.910;8.352;2024-03-07T12:38:19;40.67;;;21.10;;
21128;SDS011;10722;51.910;8.352;2024-03-07T12:41:05;39.53;;;19.77;;
21128;SDS011;10722;51.910;8.352;2024-03-07T12:43:51;37.08;;;20.33;;
21128;SDS011;10722;51.910;8.352;2024-03-07T12:46:36;38.03;;;20.33;;
21128;SDS011;10722;51.910;8.352;2024-03-07T12:49:22;40.37;;;20.17;;
21128;SDS011;10722;51.910;8.352;2024-03-07T12:52:09;38.10;;;19.63;;
21128;SDS011;10722;51.910;8.352;2024-03-07T12:54:55;43.57;;;21.37;;
21128;SDS011;10722;51.910;8.352;2024-03-07T12:57:40;39.50;;;20.63;;
21128;SDS011;10722;51.910;8.352;2024-03-07T13:00:25;37.93;;;19.90;;
21128;SDS011;10722;51.910;8.352;2024-03-07T13:03:10;39.03;;;20.80;;
21128;SDS011;10722;51.910;8.352;2024-03-07T13:05:56;38.78;;;19.50;;
21128;SDS011;10722;51.910;8.352;2024-03-07T13:08:41;37.95;;;19.02;;
21128;SDS011;10722;51.910;8.352;2024-03-07T13:11:27;35.45;;;18.95;;
21128;SDS011;10722;51.910;8.352;2024-03-07T13:14:13;40.88;;;19.23;;
21128;SDS011;10722;51.910;8.352;2024-03-07T13:16:58;36.13;;;19.02;;
21128;SDS011;10722;51.910;8.352;2024-03-07T13:19:44;37.92;;;19.00;;
21128;SDS011;10722;51.910;8.352;2024-03-07T13:22:29;35.07;;;18.70;;
21128;SDS011;10722;51.910;8.352;2024-03-07T13:25:20;36.03;;;19.38;;
21128;SDS011;10722;51.910;8.352;2024-03-07T13:28:08;38.38;;;19.73;;
21128;SDS011;10722;51.910;8.352;2024-03-07T13:30:55;40.43;;;20.77;;
21128;SDS011;10722;51.910;8.352;2024-03-07T13:33:40;41.13;;;19.37;;
21128;SDS011;10722;51.910;8.352;2024-03-07T13:36:26;37.60;;;18.67;;
21128;SDS011;10722;51.910;8.352;2024-03-07T13:39:11;38.13;;;18.60;;
21128;SDS011;10722;51.910;8.352;2024-03-07T13:41:57;39.23;;;19.43;;
21128;SDS011;10722;51.910;8.352;2024-03-07T13:44:42;41.17;;;19.07;;
21128;SDS011;10722;51.910;8.352;2024-03-07T13:47:28;37.53;;;19.77;;
21128;SDS011;10722;51.910;8.352;2024-03-07T13:50:17;39.57;;;20.27;;
21128;SDS011;10722;51.910;8.352;2024-03-07T13:53:15;67.47;;;36.50;;
21128;SDS011;10722;51.910;8.352;2024-03-07T14:01:55;40.73;;;19.40;;
21128;SDS011;10722;51.910;8.352;2024-03-07T14:08:10;37.80;;;19.33;;
21128;SDS011;10722;51.910;8.352;2024-03-07T14:11:16;39.10;;;19.20;;
21128;SDS011;10722;51.910;8.352;2024-03-07T14:32:59;43.97;;;20.73;;
21128;SDS011;10722;51.910;8.352;2024-03-07T14:36:00;44.00;;;20.73;;
21128;SDS011;10722;51.910;8.352;2024-03-07T14:38:49;43.10;;;22.33;;
21128;SDS011;10722;51.910;8.352;2024-03-07T14:44:46;42.80;;;21.77;;
21128;SDS011;10722;51.910;8.352;2024-03-07T14:47:31;49.47;;;26.43;;
21128;SDS011;10722;51.910;8.352;2024-03-07T14:50:16;40.43;;;22.37;;
21128;SDS011;10722;51.910;8.352;2024-03-07T14:53:02;46.43;;;23.80;;
21128;SDS011;10722;51.910;8.352;2024-03-07T14:55:47;52.50;;;25.77;;
21128;SDS011;10722;51.910;8.352;2024-03-07T14:58:32;50.33;;;26.70;;
21128;SDS011;10722;51.910;8.352;2024-03-07T15:01:17;50.17;;;25.23;;
21128;SDS011;10722;51.910;8.352;2024-03-07T15:04:02;46.43;;;24.37;;
21128;SDS011;10722;51.910;8.352;2024-03-07T15:06:49;56.57;;;27.03;;
21128;SDS011;10722;51.910;8.352;2024-03-07T15:09:34;47.93;;;24.77;;
21128;SDS011;10722;51.910;8.352;2024-03-07T15:12:19;51.43;;;25.80;;
21128;SDS011;10722;51.910;8.352;2024-03-07T15:15:04;52.53;;;26.47;;
21128;SDS011;10722;51.910;8.352;2024-03-07T15:18:00;50.70;;;25.67;;
21128;SDS011;10722;51.910;8.352;2024-03-07T15:20:45;51.33;;;24.10;;
21128;SDS011;10722;51.910;8.352;2024-03-07T15:23:31;44.70;;;23.20;;
21128;SDS011;10722;51.910;8.352;2024-03-07T15:26:16;46.57;;;23.50;;
21128;SDS011;10722;51.910;8.352;2024-03-07T15:29:01;45.97;;;23.57;;
21128;SDS011;10722;51.910;8.352;2024-03-07T15:31:47;44.07;;;22.93;;
21128;SDS011;10722;51.910;8.352;2024-03-07T15:34:33;43.97;;;23.87;;
21128;SDS011;10722;51.910;8.352;2024-03-07T15:37:18;50.80;;;25.60;;
21128;SDS011;10722;51.910;8.352;2024-03-07T15:40:09;46.50;;;22.83;;
21128;SDS011;10722;51.910;8.352;2024-03-07T15:42:54;49.90;;;25.10;;
21128;SDS011;10722;51.910;8.352;2024-03-07T15:45:40;45.10;;;24.60;;
21128;SDS011;10722;51.910;8.352;2024-03-07T15:48:26;48.60;;;23.90;;
21128;SDS011;10722;51.910;8.352;2024-03-07T15:51:11;42.20;;;23.00;;
21128;SDS011;10722;51.910;8.352;2024-03-07T15:53:56;45.37;;;23.10;;
21128;SDS011;10722;51.910;8.352;2024-03-07T15:56:41;47.10;;;23.93;;
21128;SDS011;10722;51.910;8.352;2024-03-07T15:59:26;48.50;;;24.10;;
21128;SDS011;10722;51.910;8.352;2024-03-07T16:02:11;46.47;;;23.30;;
21128;SDS011;10722;51.910;8.352;2024-03-07T16:04:56;45.07;;;23.70;;
21128;SDS011;10722;51.910;8.352;2024-03-07T16:07:41;46.43;;;23.80;;
21128;SDS011;10722;51.910;8.352;2024-03-07T16:10:29;50.80;;;28.30;;
21128;SDS011;10722;51.910;8.352;2024-03-07T16:13:15;42.50;;;23.30;;
21128;SDS011;10722;51.910;8.352;2024-03-07T16:16:00;43.43;;;22.97;;
21128;SDS011;10722;51.910;8.352;2024-03-07T16:18:45;44.50;;;23.70;;
21128;SDS011;10722;51.910;8.352;2024-03-07T16:21:30;43.70;;;22.73;;
21128;SDS011;10722;51.910;8.352;2024-03-07T16:24:15;42.80;;;21.80;;
21128;SDS011;10722;51.910;8.352;2024-03-07T16:27:00;40.27;;;21.27;;
21128;SDS011;10722;51.910;8.352;2024-03-07T16:29:45;44.40;;;20.67;;
21128;SDS011;10722;51.910;8.352;2024-03-07T16:32:31;40.20;;;20.87;;
21128;SDS011;10722;51.910;8.352;2024-03-07T16:35:18;38.83;;;20.87;;
21128;SDS011;10722;51.910;8.352;2024-03-07T16:38:03;41.40;;;21.17;;
21128;SDS011;10722;51.910;8.352;2024-03-07T16:40:48;44.13;;;22.43;;
21128;SDS011;10722;51.910;8.352;2024-03-07T16:43:33;41.30;;;23.33;;
21128;SDS011;10722;51.910;8.352;2024-03-07T16:46:18;38.23;;;20.33;;
21128;SDS011;10722;51.910;8.352;2024-03-07T16:49:03;38.97;;;20.60;;
21128;SDS011;10722;51.910;8.352;2024-03-07T16:51:48;37.53;;;19.93;;
21128;SDS011;10722;51.910;8.352;2024-03-07T16:54:33;41.50;;;20.67;;
21128;SDS011;10722;51.910;8.352;2024-03-07T16:57:18;40.73;;;20.33;;
21128;SDS011;10722;51.910;8.352;2024-03-07T17:00:04;36.13;;;18.93;;